New Bethlehem, PA

6:50 AM EDT on October 02, 2014 (GMT -0400)
Heathville Road | Change Station
CLOSE
Current Station
Personal Weather Station
Location: Summerville, PA
Elevation: 1217 ft
Nearby Weather Stations

Elev 1217 ft 41.11 °N, 79.18 °W | Updated 16 seconds ago

Overcast
Overcast
48.0 °F
Feels Like 48 °F
N
0.0
Wind Variable Wind from SSW
Gusts 1.6 mph

Today
High -- | Low -- °F
--% Chance of Precip.
Yesterday
High -- | Low -- °F
Precip. -- in
7:15 AM 6:57 PM
First Quarter, 57% visible
Pressure 30.10 in
Visibility 0.2 miles
Clouds
Windchill 48 °F
Dew Point 48 °F
Humidity 99%
Rainfall 0.00 in
Snow Depth Not available.
UV Not available.
Pollen 2.00 out of 12
Ozone Good
PM2.5 Moderate
Flu Activity Not available.
SPECI KDUJ 021030Z AUTO 00000KT 1/4SM FG VV003 10/10 A3010 RMK AO2 T01000100 $

More Conditions Fewer Conditions

Pressure 30.10 in
Visibility 0.2 miles
Clouds
Windchill 48 °F
Dew Point 48 °F
Humidity 99%
Rainfall 0.00 in
Snow Depth Not available.
UV Not available.
Pollen 2.00 out of 12
Ozone Good
PM2.5 Moderate
Flu Activity Not available.
SPECI KDUJ 021030Z AUTO 00000KT 1/4SM FG VV003 10/10 A3010 RMK AO2 T01000100 $

More Conditions Fewer Conditions

10-Day Weather Forecast

Almanac

Astronomy

Oct. 02, 2014 Rise Set
Actual Time 7:15 AM EDT 6:57 PM EDT
Civil Twilight 6:47 AM EDT 7:25 PM EDT
Nautical Twilight 6:15 AM EDT 7:56 PM EDT
Astronomical Twilight 5:43 AM EDT 8:28 PM EDT
Moon 3:05 PM EDT 12:27 AM EDT
Length of Visible Light 12h 37m
Length of Day
11h 42m
Tomorrow will be 2m 41s shorter.
First Quarter, 57% of the Moon is Illuminated
Today
First Quarter
Oct 8
Full
Oct 15
Last Quarter
Oct 23
New
Oct 30
First Quarter

Today's Extremes

State Highs State Lows

Community

WunderPhotos

Upload Photos

1,758,210 photos uploaded!

WunderBlogs® & News

Nearby

Air Quality

  Air Quality AQ Index Pollutant
Yesterday Moderate
PM2.5
Yesterday Good
OZONE
Current Moderate
PM2.5
Current Good
OZONE
Thursday Moderate
PM2.5
Friday Moderate
PM2.5

Snow Depth

Station Depth Elevation
No new snow has been reported.

Earthquake Activity

City Distance Mag. Time & Date
No recent earthquake activity has been reported nearby.
Minimum magnitude displayed is 2.5.

Coastal Water Temperatures

Place Temperature
No Stations Reporting

Nearby Weather Stations